Etusivu
METAR-TAF:

METAR-TAF

Lentoasemat :

Volgograd, Venäjä

Leveyspiiri: 48-47N, Pituuspiiri: 044-22E, korkeus merenpinnasta: 145 m

Tämänhetkinen sää

Tämä raportti tehtiin 22 minuuttia sitten, kello 18.30 UTC
Tuuli 10 kn idästä/kaakosta
Lämpötila 24°C
Kosteus 38%
Ilmanpaine 1015 hPa
Näkyvyys 10 km tai enemmän
ei pilviä alle 1500 m:ssä eikä cumulonimbus-pilviä

METAR: URWW 191830Z 12005MPS CAVOK 24/09 Q1015 R06/010070 NOSIG

Aika: 21:52 (18:52 UTC)

Sääennuste

Tämä raportti tehtiin 1 tunti ja 56 minuuttia sitten, kello 16.56 UTC
Ennuste voimassa 19. päivästä klo 18 UTC - 20. päivään klo 03 UTC
Tuuli 10 kn idästä puuskistuen 19 kn:hen
Näkyvyys 10 km tai enemmän
ei pilviä alle 1500 m:ssä eikä cumulonimbus-pilviä
Ajoittain
19. päivästä klo 18 UTC - 20. päivään klo 03 UTC
Tuuli 6 kn kaakosta puuskistuen 16 kn:hen

TAF: URWW 191656Z 1918/2003 09005G10MPS CAVOK TEMPO 1918/2003 14003G08MPS

Säähavainnot ja -ennusteet yli 4000 lentoasemalta (METAR- ja TAF-raportit).

Käytössä olevat sääasemat on merkitty karttaan keltaisilla ja punaisilla pisteillä.

Aseta hiiri pisteen päälle nähdäksesi sääaseman nimen.

Klikkaa sitten nähdäksesi säähavainnot ja -ennusteet.

Kartan vaihtaminen: klikkaa mustalla rastilla varustettuja vihreitä pisteitä, niin voit zoomata sisään; viivalla varustettua vihreää pistettä, niin voit zoomata ulos tai vihreitä nuolia, niin pääset viereisille kartoille.


METAR-TAF: